TimeMDT,TemperatureF,Dew PointF,Humidity,Sea Level PressureIn,VisibilityMPH,Wind Direction,Wind SpeedMPH,Gust SpeedMPH,PrecipitationIn,Events,Conditions,WindDirDegrees,DateUTC
12:55 AM,57.2,39.2,51,30.21,10.0,NW,5.8,-,N/A,,Mostly Cloudy,310,2012-10-01 06:55:00
1:15 AM,57.2,41.0,55,30.22,10.0,WNW,5.8,-,N/A,,Mostly Cloudy,290,2012-10-01 07:15:00
1:35 AM,57.2,42.8,59,30.24,10.0,NNW,9.2,-,N/A,,Overcast,340,2012-10-01 07:35:00
1:55 AM,57.2,42.8,59,30.24,10.0,NNE,9.2,-,N/A,,Overcast,20,2012-10-01 07:55:00
2:35 AM,57.2,42.8,59,30.25,10.0,NNE,13.8,-,N/A,,Overcast,20,2012-10-01 08:35:00
2:55 AM,57.2,41.0,55,30.26,10.0,North,12.7,-,N/A,,Overcast,360,2012-10-01 08:55:00
3:15 AM,57.2,41.0,55,30.26,10.0,North,11.5,-,N/A,,Overcast,360,2012-10-01 09:15:00
3:55 AM,55.4,42.8,63,30.29,10.0,NNW,10.4,-,N/A,,Overcast,340,2012-10-01 09:55:00
4:15 AM,55.4,44.6,67,30.29,10.0,North,5.8,-,N/A,,Overcast,350,2012-10-01 10:15:00
4:35 AM,55.4,44.6,67,30.30,10.0,NNW,6.9,-,N/A,,Overcast,340,2012-10-01 10:35:00
5:15 AM,53.6,44.6,72,30.30,10.0,NW,8.1,-,N/A,,Overcast,320,2012-10-01 11:15:00
6:35 AM,53.6,44.6,72,30.32,10.0,NW,8.1,-,N/A,,Overcast,310,2012-10-01 12:35:00
7:15 AM,51.8,44.6,76,30.33,10.0,NNW,6.9,-,N/A,,Mostly Cloudy,330,2012-10-01 13:15:00
7:35 AM,51.8,44.6,76,30.33,10.0,NW,6.9,-,N/A,,Scattered Clouds,320,2012-10-01 13:35:00
7:55 AM,53.6,44.6,72,30.34,10.0,NW,5.8,-,N/A,,Clear,320,2012-10-01 13:55:00
8:15 AM,55.4,44.6,67,30.34,10.0,NNW,6.9,-,N/A,,Clear,330,2012-10-01 14:15:00
8:35 AM,55.4,44.6,67,30.33,10.0,NNW,9.2,-,N/A,,Clear,340,2012-10-01 14:35:00
9:15 AM,60.8,42.8,52,30.34,10.0,North,13.8,-,N/A,,Clear,350,2012-10-01 15:15:00
9:35 AM,60.8,42.8,52,30.34,10.0,North,16.1,20.7,N/A,,Clear,350,2012-10-01 15:35:00
10:15 AM,64.4,41.0,42,30.35,10.0,North,18.4,23.0,N/A,,Clear,360,2012-10-01 16:15:00
10:35 AM,64.4,39.2,40,30.34,10.0,North,16.1,20.7,N/A,,Clear,10,2012-10-01 16:35:00
11:15 AM,66.2,37.4,35,30.32,10.0,NNE,15.0,-,N/A,,Clear,20,2012-10-01 17:15:00
11:35 AM,66.2,37.4,35,30.32,10.0,North,16.1,-,N/A,,Clear,10,2012-10-01 17:35:00
11:55 AM,68.0,37.4,33,30.32,10.0,North,15.0,19.6,N/A,,Clear,350,2012-10-01 17:55:00
12:15 PM,68.0,37.4,33,30.31,10.0,North,17.3,21.9,N/A,,Clear,360,2012-10-01 18:15:00
12:35 PM,69.8,35.6,28,30.30,10.0,North,15.0,23.0,N/A,,Clear,360,2012-10-01 18:35:00
12:55 PM,68.0,35.6,30,30.29,10.0,NNE,13.8,24.2,N/A,,Clear,20,2012-10-01 18:55:00
1:15 PM,69.8,35.6,28,30.28,10.0,NNE,19.6,-,N/A,,Clear,20,2012-10-01 19:15:00
1:35 PM,69.8,35.6,28,30.27,10.0,NNE,15.0,18.4,N/A,,Clear,30,2012-10-01 19:35:00
2:15 PM,69.8,35.6,28,30.25,10.0,North,10.4,20.7,N/A,,Clear,10,2012-10-01 20:15:00
2:35 PM,69.8,35.6,28,30.25,10.0,NNE,18.4,26.5,N/A,,Clear,20,2012-10-01 20:35:00
3:15 PM,69.8,35.6,28,30.24,10.0,NNE,11.5,18.4,N/A,,Clear,20,2012-10-01 21:15:00
3:35 PM,69.8,35.6,28,30.23,10.0,NNE,13.8,20.7,N/A,,Clear,30,2012-10-01 21:35:00
3:55 PM,69.8,35.6,28,30.22,10.0,NE,13.8,21.9,N/A,,Clear,40,2012-10-01 21:55:00
4:15 PM,69.8,35.6,28,30.21,10.0,NE,15.0,20.7,N/A,,Clear,50,2012-10-01 22:15:00
4:35 PM,69.8,33.8,27,30.21,10.0,ENE,11.5,17.3,N/A,,Clear,70,2012-10-01 22:35:00
4:55 PM,69.8,33.8,27,30.21,10.0,NE,10.4,-,N/A,,Clear,50,2012-10-01 22:55:00
5:15 PM,69.8,33.8,27,30.20,10.0,East,9.2,-,N/A,,Clear,80,2012-10-01 23:15:00
5:35 PM,68.0,33.8,28,30.20,10.0,East,9.2,-,N/A,,Clear,80,2012-10-01 23:35:00
5:55 PM,66.2,33.8,30,30.20,10.0,East,6.9,-,N/A,,Clear,80,2012-10-01 23:55:00
6:15 PM,64.4,33.8,32,30.20,10.0,East,6.9,-,N/A,,Clear,80,2012-10-02 00:15:00
6:55 PM,60.8,33.8,36,30.19,10.0,East,3.5,-,N/A,,Clear,90,2012-10-02 00:55:00
7:15 PM,60.8,35.6,39,30.19,10.0,East,5.8,-,N/A,,Clear,100,2012-10-02 01:15:00
7:35 PM,55.4,35.6,47,30.20,8.0,ESE,4.6,-,N/A,,Clear,110,2012-10-02 01:35:00
7:55 PM,55.4,35.6,47,30.20,5.0,East,4.6,-,N/A,,Clear,100,2012-10-02 01:55:00
8:15 PM,53.6,37.4,54,30.20,10.0,East,4.6,-,N/A,,Clear,90,2012-10-02 02:15:00
8:35 PM,51.8,35.6,54,30.20,3.0,East,4.6,-,N/A,,Clear,100,2012-10-02 02:35:00
8:55 PM,51.8,35.6,54,30.20,10.0,ESE,3.5,-,N/A,,Clear,110,2012-10-02 02:55:00
9:15 PM,50.0,37.4,62,30.20,10.0,East,3.5,-,N/A,,Clear,90,2012-10-02 03:15:00
9:35 PM,48.2,35.6,62,30.20,10.0,East,3.5,-,N/A,,Clear,80,2012-10-02 03:35:00
9:55 PM,48.2,35.6,62,30.20,10.0,Calm,Calm,-,N/A,,Clear,0,2012-10-02 03:55:00
10:35 PM,48.2,37.4,66,30.19,6.0,Calm,Calm,-,N/A,,Clear,0,2012-10-02 04:35:00
10:55 PM,46.4,35.6,66,30.19,10.0,ENE,3.5,-,N/A,,Clear,60,2012-10-02 04:55:00
11:15 PM,46.4,35.6,66,30.19,10.0,NE,3.5,-,N/A,,Clear,50,2012-10-02 05:15:00
11:35 PM,46.4,35.6,66,30.18,10.0,NNE,3.5,-,N/A,,Clear,30,2012-10-02 05:35:00
11:55 PM,44.6,35.6,71,30.17,10.0,NE,3.5,-,N/A,,Clear,40,2012-10-02 05:55:00